Moosonee Airport
CYMO : now visible

Airfield :











YOU CAN JOIN US ON...

 
LOGIN :

Register | Disclaimer

   EN    FR    IT 

 









Legend :    VFR   Marginal VFR   IFR   Intensive IFR   Very Intensive IFR
Visi :
Ceiling :
>= 8 km
>= 3000ft
5 to 8 km
1000 to 3000 ft
1500m to 5 km
500 to 1000 ft
800 to 1500m
200 to 500 ft
< 800m
< 200 ft
Symbols :   Thunderstorms  Fog  Heavy snow  Heavy precipitations  Wind > 20 kt






- Airport Elevation : 30 ft
- IATA code : YMO


CYMO - Moosonee

CURRENT METAR :
  • 031423Z AUTO 35010G17KT 9SM FEW017 SCT024 BKN029 BKN035 14/09 A3010 RMK SLP196

EXPIRED METARs :
  • 031416Z AUTO 34011G17KT 320V030 9SM SCT017 BKN022 BKN029 BKN041 14/09 A3011 RMK SLP197
  • 031400Z AUTO 35009G16KT 310V010 9SM BKN017 BKN025 BKN030 12/09 A3010 RMK SLP196
  • 031332Z AUTO 34009G15KT 9SM SCT015 BKN021 BKN036 13/09 A3010 RMK SLP194
  • 031313Z AUTO 34009G15KT 9SM SCT013 SCT018 BKN036 12/08 A3009 RMK SLP193
  • 031300Z AUTO 32009G15KT 9SM FEW009 BKN013 OVC036 11/09 A3009 RMK SLP192
  • 031255Z AUTO 32009KT 9SM BKN011 OVC036 11/09 A3009 RMK SLP192
  • 031224Z AUTO 34008KT 9SM OVC009 10/09 A3009 RMK SLP192
  • 031200Z AUTO 33007KT 9SM OVC007 10/09 A3009 RMK SLP191
  • 031142Z AUTO 33006KT 9SM OVC007 10/09 A3009 RMK SLP190
  • 031134Z AUTO 34005KT 9SM OVC009 10/09 A3008 RMK SLP188

TAF AMD TAF CYMO
Valid from the 03 at 13:00 until the 04 at 00:00 UTC


031331Z 0313/0324 34012KT P6SM -SHRA BKN012 OVC030
TEMPO 0313/0317 P6SM NSW FEW012 BKN030
FM031700 34010KT P6SM BKN030
TEMPO 0317/0324 BKN020 RMK FCST BASED ON AUTO OBS. NXT FCST BY 031800Z
CZYZ FIR / North America



MET'MAP, your aeronautical weather chart ! - Copyright ORBIFLY December 2007 - Disclaimer

ORBIFLY MET'MAP TEAM :

Programming & Development : Alexandra Zaïnal
Concept & original design : Baudouin d'Aumeries
Assistance for programming : Marc-Olivier Méhu
Technical & hardware support : Manuel Goepfert

Contact : metmap@orbifly.com




SOURCES & CREDITS :

   NOAA       Earth
Advisory